Latest Weather Observations for Parndana

IDS60801

Issued at 8:31 am CST Thursday 25 August 2016 (issued every 30 minutes, with the page automatically refreshed every 10 minutes)

About weather observations | Map of weather stations | Latest weather observations for SA | Other Formats
Station Details ID: 022843 Name: PARNDANA CFS AWS Lat: -35.79 Lon: 137.25 Height: 165.0 m
Data from the previous 72 hours. | See also: Recent months at Parndana
Date/Time
CST
Temp
°C
App
Temp
°C
Dew
Point
°C
Rel
Hum
%
Delta-T
°C
Wind Press
QNH
hPa
Press
MSL
hPa
Rain since
9am
mm
Dir  Spd
km/h
Gust
km/h
Spd
kts
Gust
kts
25/08:30am 7.9 6.0 6.7 92 0.6 WSW 6 6 3 3 - - 0.0
25/08:00am 5.8 3.9 4.8 93 0.4 SW 4 6 2 3 - - 0.0
25/07:30am 4.2 2.3 3.0 92 0.5 SSW 2 4 1 2 - - 0.0
25/07:00am 4.0 1.2 3.1 94 0.4 SW 7 9 4 5 - - 0.0
25/06:30am 3.4 0.5 2.4 93 0.4 SW 7 7 4 4 - - 0.0
25/06:00am 3.6 0.7 2.4 92 0.5 SW 7 7 4 4 - - 0.0
25/05:30am 4.7 2.5 3.5 92 0.5 SSW 4 4 2 2 - - 0.0
25/05:00am 4.8 2.7 3.8 93 0.4 SSE 4 6 2 3 - - 0.0
25/04:30am 4.0 1.7 2.7 91 0.5 SSE 4 6 2 3 - - 0.0
25/04:00am 3.7 1.0 2.5 92 0.5 SSE 6 6 3 3 - - 0.0
25/03:30am 4.2 1.5 2.4 88 0.7 SSE 6 7 3 4 - - 0.0
25/03:00am 6.1 3.6 4.6 90 0.7 SE 7 7 4 4 - - 0.0
25/02:30am 5.1 2.4 3.8 91 0.6 SSE 7 7 4 4 - - 0.0
25/02:00am 4.5 1.7 3.2 91 0.5 SSE 7 7 4 4 - - 0.0
25/01:30am 5.0 2.5 3.7 91 0.5 SSE 6 6 3 3 - - 0.0
25/01:00am 4.9 2.7 3.1 88 0.7 SSE 4 4 2 2 - - 0.0
25/12:30am 5.9 4.2 4.1 88 0.8 SSE 2 2 1 1 - - 0.0
25/12:00am 5.7 3.6 3.7 87 0.8 SSE 4 4 2 2 - - 0.0
 
Date/Time
CST
Temp
°C
App
Temp
°C
Dew
Point
°C
Rel
Hum
%
Delta-T
°C
Wind Press
QNH
hPa
Press
MSL
hPa
Rain since
9am
mm
Dir  Spd
km/h
Gust
km/h
Spd
kts
Gust
kts
24/11:30pm 5.5 2.8 3.5 87 0.8 SSE 7 9 4 5 - - 0.0
24/11:00pm 5.8 3.1 3.8 87 0.9 SSE 7 9 4 5 - - 0.0
24/10:30pm 5.6 2.8 3.4 86 0.9 SE 7 9 4 5 - - 0.0
24/10:00pm 5.2 1.6 3.1 86 0.9 SE 11 13 6 7 - - 0.0
24/09:30pm 5.7 2.6 3.5 86 0.9 SE 9 11 5 6 - - 0.0
24/09:00pm 5.4 2.3 3.4 87 0.8 SE 9 13 5 7 - - 0.0
24/08:30pm 5.7 2.2 3.5 86 0.9 SE 11 13 6 7 - - 0.0
24/08:00pm 6.7 3.4 4.4 85 1.0 SE 11 13 6 7 - - 0.0
24/07:30pm 6.3 2.9 3.8 84 1.1 SE 11 13 6 7 - - 0.0
24/07:00pm 7.5 4.2 4.8 83 1.2 SE 11 15 6 8 - - 0.0
24/06:30pm 7.2 4.8 5.2 87 0.9 SSE 7 9 4 5 - - 0.0
24/06:00pm 8.5 6.5 6.1 85 1.1 S 6 7 3 4 - - 0.0
24/05:30pm 9.6 7.7 6.7 82 1.4 S 6 7 3 4 - - 0.0
24/05:00pm 9.8 7.1 7.2 84 1.2 SW 11 13 6 7 - - 0.0
24/04:30pm 10.0 7.4 7.6 85 1.2 WSW 11 13 6 7 - - 0.0
24/04:00pm 10.9 8.9 7.0 77 1.9 WSW 7 11 4 6 - - 0.0
24/03:30pm 11.9 9.9 7.2 73 2.3 E 7 13 4 7 - - 0.0
24/03:00pm 11.9 9.7 8.0 77 1.9 ESE 9 13 5 7 - - 0.0
24/02:30pm 12.4 8.2 7.5 72 2.4 E 19 24 10 13 - - 0.0
24/02:00pm 12.7 8.4 8.0 73 2.3 ENE 20 28 11 15 - - 0.0
24/01:30pm 12.6 9.7 8.3 75 2.1 E 13 19 7 10 - - 0.0
24/01:00pm 11.9 9.3 7.6 75 2.1 ESE 11 15 6 8 - - 0.0
24/12:30pm 12.5 10.5 7.2 70 2.6 E 7 13 4 7 - - 0.0
24/12:00pm 13.5 10.9 7.7 68 2.9 ENE 11 17 6 9 - - 0.0
24/11:30am 13.0 10.0 7.7 70 2.6 E 13 17 7 9 - - 0.0
24/11:00am 12.5 9.1 7.6 72 2.4 E 15 19 8 10 - - 0.0
24/10:30am 12.1 8.4 7.8 75 2.1 E 17 20 9 11 - - 0.0
24/10:00am 11.9 8.7 8.6 80 1.7 E 15 22 8 12 - - 0.0
24/09:30am 11.3 8.1 8.3 82 1.5 E 15 20 8 11 - - 0.0
24/09:00am 10.9 8.2 8.8 87 1.0 E 13 19 7 10 - - 0.0
24/08:30am 9.3 6.7 7.6 89 0.8 E 11 13 6 7 - - 0.0
24/08:00am 7.7 5.2 6.5 92 0.6 E 9 11 5 6 - - 0.0
24/07:30am 5.9 3.4 5.0 94 0.4 E 7 9 4 5 - - 0.0
24/07:00am 5.5 3.0 4.5 93 0.4 E 7 9 4 5 - - 0.0
24/06:30am 5.8 3.6 5.2 96 0.3 E 6 7 3 4 - - 0.0
24/06:00am 6.0 3.6 5.4 96 0.3 E 7 7 4 4 - - 0.0
24/05:30am 5.7 3.3 5.1 96 0.3 E 7 9 4 5 - - 0.0
24/05:00am 5.8 3.1 5.4 97 0.2 E 9 11 5 6 - - 0.0
24/04:30am 4.9 2.3 4.3 96 0.3 SE 7 7 4 4 - - 0.0
24/04:00am 4.5 2.0 3.9 96 0.3 SSE 6 6 3 3 - - 0.0
24/03:30am 4.5 2.0 3.9 96 0.3 SSE 6 6 3 3 - - 0.0
24/03:00am 4.5 2.4 3.9 96 0.3 ESE 4 6 2 3 - - 0.0
24/02:30am 4.2 2.0 3.3 94 0.4 ESE 4 4 2 2 - - 0.0
24/02:00am 5.0 2.6 4.3 95 0.3 ESE 6 6 3 3 - - 0.0
24/01:30am 4.5 2.4 3.8 95 0.3 ESE 4 4 2 2 - - 0.0
24/01:00am 6.4 4.3 5.7 95 0.3 ESE 6 6 3 3 - - 0.0
24/12:30am 6.1 4.7 5.5 96 0.3 SSW 2 4 1 2 - - 0.0
24/12:00am 5.7 3.8 5.0 95 0.3 S 4 4 2 2 - - 0.0
 
Date/Time
CST
Temp
°C
App
Temp
°C
Dew
Point
°C
Rel
Hum
%
Delta-T
°C
Wind Press
QNH
hPa
Press
MSL
hPa
Rain since
9am
mm
Dir  Spd
km/h
Gust
km/h
Spd
kts
Gust
kts
23/11:30pm 6.4 5.4 5.5 94 0.4 CALM 0 0 0 0 - - 0.0
23/11:00pm 6.1 4.7 5.4 95 0.3 SSW 2 2 1 1 - - 0.0
23/10:30pm 5.6 3.7 4.7 94 0.4 S 4 4 2 2 - - 0.0
23/10:00pm 6.7 4.6 5.8 94 0.4 SE 6 7 3 4 - - 0.0
23/09:30pm 6.8 4.7 5.9 94 0.4 SSE 6 7 3 4 - - 0.0
23/09:00pm 6.6 4.3 5.6 93 0.4 SE 7 9 4 5 - - 0.0
23/08:30pm 6.4 4.2 5.4 93 0.4 SSE 6 7 3 4 - - 0.0
23/08:00pm 6.6 3.9 5.4 92 0.5 SE 9 9 5 5 - - 0.0
23/07:30pm 7.0 4.7 5.6 91 0.6 SE 7 9 4 5 - - 0.0
23/07:00pm 7.3 5.0 5.8 90 0.7 SE 7 9 4 5 - - 0.0
23/06:30pm 8.3 5.7 6.3 87 0.9 ESE 9 13 5 7 - - 0.0
23/06:00pm 9.3 6.4 6.7 84 1.2 ESE 11 13 6 7 - - 0.0
23/05:30pm 10.2 8.4 7.1 81 1.5 SSE 6 9 3 5 - - 0.0
23/05:00pm 11.0 9.2 7.9 81 1.5 SE 7 9 4 5 - - 0.0
23/04:30pm 11.4 9.6 8.1 80 1.6 E 7 11 4 6 - - 0.0
23/04:00pm 11.7 10.0 8.4 80 1.6 E 7 9 4 5 - - 0.0
23/03:30pm 12.2 9.3 8.3 77 1.9 E 13 17 7 9 - - 0.0
23/03:00pm 11.1 9.1 8.7 85 1.2 E 9 13 5 7 - - 0.0
23/02:30pm 11.1 7.6 8.8 86 1.1 E 17 20 9 11 - - 0.0
23/02:00pm 12.3 9.0 9.7 84 1.3 E 17 22 9 12 - - 0.0
23/01:30pm 11.6 8.5 8.8 83 1.4 E 15 17 8 9 - - 0.0
23/01:00pm 12.7 9.2 8.8 77 2.0 E 17 22 9 12 - - 0.0
23/12:30pm 13.1 10.6 8.2 72 2.4 NE 11 17 6 9 - - 0.0
23/12:00pm 13.2 11.3 7.4 68 2.9 ENE 7 15 4 8 - - 0.0
23/11:30am 12.7 10.0 7.4 70 2.6 NE 11 17 6 9 - - 0.0
23/11:00am 11.6 8.9 7.3 75 2.1 ENE 11 15 6 8 - - 0.0
23/10:30am 11.8 8.8 7.7 76 2.0 NE 13 17 7 9 - - 0.0
23/10:00am 11.3 8.4 8.3 82 1.5 ENE 13 17 7 9 - - 0.0
23/09:30am 10.5 7.7 8.6 88 0.9 ENE 13 17 7 9 - - 0.0
23/09:00am 10.1 8.6 9.2 94 0.5 ENE 7 11 4 6 - - 2.8
23/08:30am 9.0 7.9 8.6 97 0.2 E 4 7 2 4 - - 2.8
23/08:00am 6.5 4.8 6.1 97 0.2 ESE 4 6 2 3 - - 2.8
23/07:30am 5.0 3.0 4.6 97 0.2 E 4 6 2 3 - - 2.8
23/07:00am 4.5 2.4 3.9 96 0.3 E 4 6 2 3 - - 2.8
23/06:30am 5.3 3.4 4.9 97 0.2 ENE 4 4 2 2 - - 2.8
23/06:00am 4.5 2.4 3.9 96 0.3 ENE 4 4 2 2 - - 2.8
23/05:30am 5.6 3.8 5.2 97 0.2 ENE 4 4 2 2 - - 2.8
23/05:00am 7.3 5.4 6.9 97 0.2 ENE 6 7 3 4 - - 2.8
23/04:30am 5.3 3.8 4.9 97 0.2 ENE 2 4 1 2 - - 2.8
23/04:00am 6.7 4.7 6.3 97 0.2 ENE 6 6 3 3 - - 2.8
23/03:30am 5.9 4.8 5.3 96 0.3 CALM 0 0 0 0 - - 2.8
23/03:00am 5.9 4.8 5.3 96 0.3 CALM 0 0 0 0 - - 2.8
23/02:30am 6.2 5.2 5.6 96 0.3 CALM 0 0 0 0 - - 2.8
23/02:00am 5.2 4.0 4.6 96 0.3 CALM 0 0 0 0 - - 2.8
23/01:30am 5.8 4.7 5.2 96 0.3 CALM 0 0 0 0 - - 2.8
23/01:00am 5.5 4.0 4.9 96 0.3 SE 2 2 1 1 - - 2.8
23/12:30am 6.7 4.6 6.0 95 0.3 SE 6 6 3 3 - - 2.8
23/12:00am 6.8 4.8 6.2 96 0.3 SSE 6 6 3 3 - - 2.8
 
Date/Time
CST
Temp
°C
App
Temp
°C
Dew
Point
°C
Rel
Hum
%
Delta-T
°C
Wind Press
QNH
hPa
Press
MSL
hPa
Rain since
9am
mm
Dir  Spd
km/h
Gust
km/h
Spd
kts
Gust
kts
22/11:30pm 6.9 5.3 6.2 95 0.3 S 4 6 2 3 - - 2.8
22/11:00pm 6.0 4.2 5.3 95 0.3 SSW 4 6 2 3 - - 2.8
22/10:30pm 7.1 5.5 6.2 94 0.4 SW 4 4 2 2 - - 2.8
22/10:00pm 7.3 6.1 6.4 94 0.4 SW 2 4 1 2 - - 2.8
22/09:30pm 7.3 5.7 6.2 93 0.5 S 4 4 2 2 - - 2.8
22/09:00pm 7.2 5.5 6.0 92 0.5 SSW 4 4 2 2 - - 2.8
22/08:30pm 7.9 6.3 6.5 91 0.6 S 4 6 2 3 - - 2.8
22/08:00pm 8.5 7.1 7.1 91 0.7 S 4 6 2 3 - - 2.8
22/07:30pm 9.2 7.5 7.5 89 0.8 SSW 6 7 3 4 - - 2.8
22/07:00pm 9.6 8.0 7.9 89 0.8 SSW 6 7 3 4 - - 2.8
22/06:30pm 9.9 8.7 8.0 88 0.9 S 4 6 2 3 - - 2.8
22/06:00pm 10.1 8.9 8.0 87 1.0 SSE 4 6 2 3 - - 2.8
22/05:30pm 10.3 8.4 7.7 84 1.3 SE 7 7 4 4 - - 2.8
22/05:00pm 11.2 9.7 8.6 84 1.3 E 6 7 3 4 - - 2.8
22/04:30pm 11.6 9.9 7.7 77 1.9 SSE 6 7 3 4 - - 2.8
22/04:00pm 11.0 9.5 8.6 85 1.2 WNW 6 9 3 5 - - 2.8
22/03:30pm 10.2 7.8 8.5 89 0.8 W 11 13 6 7 - - 2.8
22/03:00pm 10.3 8.2 8.4 88 0.9 WNW 9 11 5 6 - - 2.8
22/02:30pm 9.9 7.3 7.8 87 1.0 NW 11 13 6 7 - - 2.8
22/02:00pm 10.9 9.2 8.5 85 1.2 WNW 7 9 4 5 - - 2.6
22/01:30pm 12.0 10.9 8.3 78 1.8 NE 4 6 2 3 - - 2.4
22/01:00pm 12.0 11.0 7.5 74 2.2 S 2 6 1 3 - - 2.4
22/12:30pm 12.1 10.8 7.6 74 2.2 SW 4 7 2 4 - - 2.4
22/12:00pm 10.5 8.7 7.0 79 1.7 S 6 7 3 4 - - 2.4
22/11:30am 10.5 6.2 7.0 79 1.7 W 19 33 10 18 - - 0.2
22/11:00am 13.5 13.2 8.6 72 2.5 CALM 0 0 0 0 - - 0.0
22/10:30am 12.3 11.9 8.4 77 1.9 CALM 0 2 0 1 - - 0.0
22/10:00am 11.3 9.8 8.3 82 1.5 NNW 6 6 3 3 - - 0.0
22/09:30am 10.6 9.5 8.5 87 1.0 WNW 4 4 2 2 - - 0.0
22/09:00am 9.8 8.8 8.7 93 0.5 W 4 4 2 2 - - 1.4

Other Formats:

Comma delimited format used in spreadsheet applications
http://www.bom.gov.au/fwo/IDS60801/IDS60801.94807.axf

JavaScript Object Notation format (JSON) in row-major order
http://www.bom.gov.au/fwo/IDS60801/IDS60801.94807.json